Time;durP1;ratioP1;P1;durP2;ratioP2;P2;SDS_P1;SDS_P2;PMS_P1;PMS_P2;Temp;Humidity;BMP_temperature;BMP_pressure;BME280_temperature;BME280_humidity;BME280_pressure;Samples;Min_cycle;Max_cycle;Signal;HPM_P1;HPM_P2
2022/05/02 00:00:48;;;;;;;2.03;1.80;;;15.00;78.10;;;;;;5054646;28;20037;-67
2022/05/02 00:03:14;;;;;;;2.08;1.60;;;15.00;78.40;;;;;;5054561;28;20527;-64
2022/05/02 00:05:41;;;;;;;2.63;1.58;;;14.90;78.10;;;;;;5054647;28;20033;-65
2022/05/02 00:08:07;;;;;;;2.00;1.80;;;14.90;77.90;;;;;;5054241;28;20043;-65
2022/05/02 00:10:33;;;;;;;3.97;2.28;;;14.90;78.10;;;;;;5054674;28;20119;-66
2022/05/02 00:13:01;;;;;;;2.25;1.88;;;14.90;77.60;;;;;;5054528;28;20512;-66
2022/05/02 00:15:27;;;;;;;3.75;1.95;;;14.90;77.70;;;;;;5054374;28;20038;-65
2022/05/02 00:17:59;;;;;;;2.28;2.05;;;14.80;77.30;;;;;;5054253;28;20049;-65
2022/05/02 00:20:31;;;;;;;3.10;2.25;;;14.80;75.90;;;;;;5054206;28;20048;-65
2022/05/02 00:22:59;;;;;;;2.50;1.90;;;14.80;76.70;;;;;;5054376;28;20045;-65
2022/05/02 00:25:25;;;;;;;2.75;2.10;;;14.90;76.90;;;;;;5054037;28;20059;-66
2022/05/02 00:27:51;;;;;;;3.47;2.28;;;14.90;76.10;;;;;;5054233;28;20064;-65
2022/05/02 00:30:17;;;;;;;4.53;2.20;;;14.90;75.50;;;;;;5053935;28;20037;-65
2022/05/02 00:32:43;;;;;;;2.50;1.90;;;14.90;75.60;;;;;;5053740;28;20120;-65
2022/05/02 00:35:10;;;;;;;2.30;2.10;;;14.90;75.40;;;;;;5054029;28;20110;-68
2022/05/02 00:37:37;;;;;;;2.20;1.83;;;14.90;75.50;;;;;;5053738;28;20040;-66
2022/05/02 00:40:04;;;;;;;2.15;1.90;;;15.00;75.10;;;;;;5053962;28;20492;-66
2022/05/02 00:42:30;;;;;;;2.00;1.80;;;15.00;75.20;;;;;;5054066;28;20503;-65
2022/05/02 00:44:55;;;;;;;2.22;2.03;;;15.00;75.20;;;;;;5053803;28;20060;-65
2022/05/02 00:47:21;;;;;;;3.00;1.65;;;15.00;75.20;;;;;;5053724;28;20108;-66
2022/05/02 00:49:50;;;;;;;2.15;1.95;;;15.10;75.10;;;;;;5053493;28;20033;-65
2022/05/02 00:52:17;;;;;;;2.20;1.90;;;15.00;75.40;;;;;;5053475;28;20052;-65
2022/05/02 00:54:44;;;;;;;2.10;1.90;;;15.00;75.60;;;;;;5053564;28;20029;-66
2022/05/02 00:57:15;;;;;;;5.47;2.40;;;15.00;75.80;;;;;;5053042;28;20064;-65
2022/05/02 00:59:42;;;;;;;3.28;2.25;;;15.00;77.60;;;;;;5050100;28;20037;-66
2022/05/02 01:02:09;;;;;;;4.68;2.22;;;14.90;78.50;;;;;;5050713;28;20032;-65
2022/05/02 01:04:36;;;;;;;4.57;2.47;;;14.80;78.80;;;;;;5051542;28;20029;-65
2022/05/02 01:07:11;;;;;;;2.38;2.17;;;14.80;79.30;;;;;;5053172;28;20036;-66
2022/05/02 01:09:50;;;;;;;4.03;1.90;;;14.70;80.00;;;;;;5053304;28;20041;-65
2022/05/02 01:12:19;;;;;;;3.15;2.65;;;14.70;80.00;;;;;;5053164;28;20456;-65
2022/05/02 01:14:49;;;;;;;3.60;2.67;;;14.60;81.30;;;;;;5052987;28;20072;-66
2022/05/02 01:17:15;;;;;;;3.95;2.58;;;14.60;81.50;;;;;;5053316;28;20045;-65
2022/05/02 01:19:42;;;;;;;3.47;2.38;;;14.60;82.40;;;;;;5053036;28;20112;-66
2022/05/02 01:22:07;;;;;;;2.60;2.40;;;14.60;82.40;;;;;;5052779;28;20095;-66
2022/05/02 01:24:36;;;;;;;4.40;2.60;;;14.60;82.20;;;;;;5053303;28;20029;-66
2022/05/02 01:27:02;;;;;;;3.53;2.38;;;14.60;81.80;;;;;;5052875;28;20091;-65
2022/05/02 01:29:30;;;;;;;2.70;2.22;;;14.60;81.20;;;;;;5052958;28;20033;-65
2022/05/02 01:31:56;;;;;;;3.10;2.45;;;14.50;81.90;;;;;;5053137;28;20075;-68
2022/05/02 01:34:22;;;;;;;3.00;2.38;;;14.50;82.80;;;;;;5052730;28;20489;-65
2022/05/02 01:36:47;;;;;;;4.07;2.40;;;14.50;82.80;;;;;;5053207;28;20048;-65
2022/05/02 01:39:13;;;;;;;2.95;2.45;;;14.50;82.40;;;;;;5052870;28;20473;-65
2022/05/02 01:41:39;;;;;;;2.50;2.30;;;14.50;82.60;;;;;;5052939;28;20033;-65
2022/05/02 01:44:05;;;;;;;2.90;2.42;;;14.40;82.80;;;;;;5052842;28;20385;-65
2022/05/02 01:46:30;;;;;;;4.57;2.50;;;14.40;82.30;;;;;;5053102;28;20100;-65
2022/05/02 01:48:57;;;;;;;2.55;2.20;;;14.40;83.00;;;;;;5052789;28;20116;-65
2022/05/02 01:51:23;;;;;;;3.78;2.80;;;14.40;82.60;;;;;;5052986;28;20101;-66
2022/05/02 01:53:49;;;;;;;3.47;2.15;;;14.40;82.80;;;;;;5052826;28;20057;-65
2022/05/02 01:56:14;;;;;;;2.60;2.40;;;14.30;82.90;;;;;;5052702;28;20047;-66
2022/05/02 01:58:40;;;;;;;6.47;2.60;;;14.30;82.60;;;;;;5052808;28;20119;-65
2022/05/02 02:01:06;;;;;;;2.97;2.67;;;14.30;82.10;;;;;;5052681;28;20416;-65
2022/05/02 02:03:32;;;;;;;2.58;2.22;;;14.30;83.60;;;;;;5055235;28;20113;-66
2022/05/02 02:05:58;;;;;;;3.13;2.58;;;14.30;83.20;;;;;;5057047;28;20393;-65
2022/05/02 02:08:30;;;;;;;2.78;2.58;;;14.30;82.10;;;;;;5056333;28;20044;-65
2022/05/02 02:11:00;;;;;;;5.60;2.70;;;14.20;82.10;;;;;;5056677;28;20029;-65
2022/05/02 02:13:27;;;;;;;4.80;2.78;;;14.10;82.70;;;;;;5056638;28;20037;-65
2022/05/02 02:15:53;;;;;;;3.40;2.80;;;14.10;82.70;;;;;;5056731;28;20464;-65
2022/05/02 02:18:19;;;;;;;5.50;2.75;;;14.10;82.80;;;;;;5056696;28;20132;-66
2022/05/02 02:20:47;;;;;;;3.47;2.78;;;14.00;83.40;;;;;;5056445;28;20037;-65
2022/05/02 02:23:14;;;;;;;2.80;2.60;;;14.00;83.60;;;;;;5041296;28;20128;-65
2022/05/02 02:25:40;;;;;;;4.18;2.83;;;14.00;83.90;;;;;;5036298;28;20556;-65
2022/05/02 02:28:06;;;;;;;4.13;2.75;;;13.90;83.60;;;;;;5036428;28;20029;-66
2022/05/02 02:30:32;;;;;;;3.03;2.65;;;13.90;84.60;;;;;;5036419;28;20029;-68
2022/05/02 02:32:59;;;;;;;3.20;2.80;;;13.80;83.70;;;;;;5036342;28;20401;-68
2022/05/02 02:35:26;;;;;;;4.82;3.45;;;13.80;84.00;;;;;;5036245;28;20079;-66
2022/05/02 02:37:52;;;;;;;3.22;2.70;;;13.70;84.50;;;;;;5035988;28;20069;-65
2022/05/02 02:40:18;;;;;;;3.47;3.00;;;13.70;84.80;;;;;;5036118;28;20076;-65
2022/05/02 02:42:44;;;;;;;3.25;2.85;;;13.70;85.20;;;;;;5036295;28;20044;-66
2022/05/02 02:45:10;;;;;;;2.83;2.63;;;13.70;85.10;;;;;;5036153;28;20390;-66
2022/05/02 02:47:36;;;;;;;4.22;3.33;;;13.80;85.20;;;;;;5035962;28;20041;-65
2022/05/02 02:50:02;;;;;;;3.50;3.20;;;13.80;85.00;;;;;;5035801;28;20548;-65
2022/05/02 02:52:28;;;;;;;3.58;2.75;;;13.70;84.40;;;;;;5035715;28;20041;-66
2022/05/02 02:54:54;;;;;;;3.75;3.33;;;13.70;85.10;;;;;;5036135;28;20497;-65
2022/05/02 02:57:19;;;;;;;3.03;2.70;;;13.80;84.60;;;;;;5035710;28;20037;-65
2022/05/02 02:59:45;;;;;;;4.25;3.28;;;13.80;85.00;;;;;;5035816;28;20088;-68
2022/05/02 03:02:11;;;;;;;4.65;2.97;;;13.80;85.00;;;;;;5035466;28;20363;-66
2022/05/02 03:07:26;;;;;;;3.70;3.33;;;13.80;85.30;;;;;;5036173;28;20048;-66
2022/05/02 03:09:52;;;;;;;3.13;2.83;;;13.80;85.10;;;;;;5035452;28;20036;-66
2022/05/02 03:12:19;;;;;;;3.22;2.92;;;13.80;84.70;;;;;;5035494;28;20045;-65
2022/05/02 03:14:45;;;;;;;4.47;2.80;;;13.80;84.60;;;;;;5035228;28;20509;-65
2022/05/02 03:17:11;;;;;;;3.33;3.03;;;13.80;84.60;;;;;;5035153;28;20073;-65
2022/05/02 03:19:37;;;;;;;5.80;3.53;;;13.80;84.10;;;;;;5035125;28;20057;-65
2022/05/02 03:22:03;;;;;;;3.30;3.00;;;13.70;85.30;;;;;;5035591;28;20046;-65
2022/05/02 03:24:29;;;;;;;3.50;3.03;;;13.80;85.40;;;;;;5035782;28;20061;-65
2022/05/02 03:26:55;;;;;;;3.33;3.03;;;13.70;85.40;;;;;;5035417;28;20064;-68
2022/05/02 03:29:20;;;;;;;2.95;2.63;;;13.80;85.10;;;;;;5035468;28;20072;-65
2022/05/02 03:31:46;;;;;;;3.33;3.03;;;13.80;84.70;;;;;;5034849;28;20021;-65
2022/05/02 03:34:12;;;;;;;7.13;3.35;;;13.80;85.30;;;;;;5034991;28;20498;-65
2022/05/02 03:36:37;;;;;;;3.40;3.10;;;13.80;85.20;;;;;;5035053;28;20467;-65
2022/05/02 03:39:03;;;;;;;3.42;3.13;;;13.80;85.00;;;;;;5035402;28;20030;-65
2022/05/02 03:41:29;;;;;;;4.70;3.33;;;13.70;85.10;;;;;;5034886;28;20036;-66
2022/05/02 03:43:55;;;;;;;3.00;2.70;;;13.70;85.70;;;;;;5035125;28;20037;-68
2022/05/02 03:46:21;;;;;;;3.17;2.63;;;13.70;85.30;;;;;;5034900;28;20103;-65
2022/05/02 03:48:47;;;;;;;5.45;3.60;;;13.70;85.40;;;;;;5034870;28;20038;-66
2022/05/02 03:51:13;;;;;;;3.33;3.00;;;13.70;85.40;;;;;;5034493;28;20116;-66
2022/05/02 03:53:38;;;;;;;3.72;3.42;;;13.80;85.70;;;;;;5034682;28;20123;-65
2022/05/02 03:56:04;;;;;;;3.35;3.03;;;13.70;85.70;;;;;;5034837;28;20160;-66
2022/05/02 03:58:30;;;;;;;3.75;3.17;;;13.80;85.70;;;;;;5034544;28;20048;-65
2022/05/02 04:00:56;;;;;;;3.80;3.50;;;13.70;85.60;;;;;;5034803;28;20045;-66
2022/05/02 04:03:21;;;;;;;4.65;3.20;;;13.70;85.30;;;;;;5034782;28;20103;-66
2022/05/02 04:05:47;;;;;;;3.47;3.05;;;13.70;86.20;;;;;;5034120;28;20038;-66
2022/05/02 04:08:13;;;;;;;5.28;3.47;;;13.70;86.40;;;;;;5034648;28;20044;-66
2022/05/02 04:10:38;;;;;;;4.93;3.50;;;13.70;86.60;;;;;;5034405;28;20375;-66
2022/05/02 04:13:04;;;;;;;3.88;3.50;;;13.70;86.40;;;;;;5034531;28;20402;-65
2022/05/02 04:15:30;;;;;;;5.80;5.30;;;13.60;86.60;;;;;;5034606;28;20120;-65
2022/05/02 04:17:58;;;;;;;4.88;3.70;;;13.70;86.80;;;;;;5034156;28;20042;-65
2022/05/02 04:20:24;;;;;;;4.07;3.72;;;13.60;86.90;;;;;;5034722;28;20033;-65
2022/05/02 04:22:50;;;;;;;4.65;3.42;;;13.70;86.90;;;;;;5034168;28;20061;-67
2022/05/02 04:25:16;;;;;;;4.38;3.20;;;13.70;87.00;;;;;;5033585;28;20158;-68
2022/05/02 04:27:43;;;;;;;4.93;3.40;;;13.70;86.70;;;;;;5034243;28;20041;-66
2022/05/02 04:30:10;;;;;;;3.00;2.72;;;13.70;86.10;;;;;;5034152;28;20609;-66
2022/05/02 04:32:37;;;;;;;3.90;3.50;;;13.70;86.60;;;;;;5033674;28;20041;-66
2022/05/02 04:35:03;;;;;;;5.35;3.65;;;13.70;86.30;;;;;;5034076;28;20056;-66
2022/05/02 04:37:29;;;;;;;3.50;3.17;;;13.70;87.00;;;;;;5033837;28;20070;-67
2022/05/02 04:39:55;;;;;;;4.50;3.88;;;13.70;87.10;;;;;;5034154;28;20029;-66
2022/05/02 04:42:21;;;;;;;3.72;3.22;;;13.60;87.10;;;;;;5033740;28;20041;-68
2022/05/02 04:44:47;;;;;;;3.75;3.45;;;13.60;87.20;;;;;;5033605;28;20029;-68
2022/05/02 04:47:13;;;;;;;4.88;4.40;;;13.60;87.20;;;;;;5033537;28;20059;-66
2022/05/02 04:49:38;;;;;;;4.40;3.78;;;13.60;87.30;;;;;;5033627;28;20422;-67
2022/05/02 04:52:04;;;;;;;7.03;4.20;;;13.60;87.50;;;;;;5033581;28;20481;-65
2022/05/02 04:54:30;;;;;;;4.50;4.10;;;13.70;87.20;;;;;;5033659;28;20048;-68
2022/05/02 04:56:56;;;;;;;4.40;3.95;;;13.70;87.10;;;;;;5033541;28;20429;-65
2022/05/02 04:59:22;;;;;;;5.25;4.72;;;13.70;87.20;;;;;;5033482;28;20091;-67
2022/05/02 05:01:47;;;;;;;6.80;5.75;;;13.70;87.30;;;;;;5033465;28;20046;-67
2022/05/02 05:04:13;;;;;;;8.48;6.28;;;13.70;87.90;;;;;;5033269;28;20042;-66
2022/05/02 05:06:39;;;;;;;5.88;5.28;;;13.70;88.00;;;;;;5033175;28;20033;-65
2022/05/02 05:09:05;;;;;;;6.90;6.20;;;13.70;88.00;;;;;;5033301;28;20041;-66
2022/05/02 05:11:35;;;;;;;5.82;5.32;;;13.70;88.00;;;;;;5033360;28;20421;-66
2022/05/02 05:17:10;;;;;;;6.05;5.35;;;13.70;88.60;;;;;;5033160;28;20152;-67
2022/05/02 05:20:04;;;;;;;7.43;6.65;;;13.80;89.00;;;;;;5033145;28;20042;-68
2022/05/02 05:22:42;;;;;;;6.97;6.38;;;13.80;88.60;;;;;;5033182;28;20457;-68
2022/05/02 05:25:45;;;;;;;8.45;6.55;;;13.80;88.20;;;;;;5033275;28;20552;-67
2022/05/02 05:28:29;;;;;;;;;;;13.90;88.50;;;;;;5033307;28;20038;-66
2022/05/02 05:31:07;;;;;;;6.20;5.15;;;13.90;88.50;;;;;;5032619;28;19959;-65
2022/05/02 05:33:49;;;;;;;7.93;5.70;;;14.00;87.80;;;;;;5032876;28;20030;-66
2022/05/02 05:37:13;;;;;;;5.75;5.25;;;14.10;88.70;;;;;;5032784;28;20371;-66
2022/05/02 05:39:49;;;;;;;6.38;5.63;;;14.10;89.00;;;;;;4952389;29;20078;-66
2022/05/02 05:42:28;;;;;;;6.30;5.70;;;14.10;88.30;;;;;;4952381;29;20437;-65
2022/05/02 05:45:04;;;;;;;5.97;5.07;;;14.10;88.30;;;;;;5003446;28;20038;-65
2022/05/02 05:47:52;;;;;;;10.52;5.25;;;14.10;88.50;;;;;;5032502;28;20044;-64
2022/05/02 05:50:24;;;;;;;9.70;5.03;;;14.20;88.70;;;;;;5032521;28;20072;-65
2022/05/02 05:53:26;;;;;;;5.57;4.40;;;14.30;88.80;;;;;;5032604;28;20037;-62
2022/05/02 05:56:23;;;;;;;5.72;4.63;;;14.30;88.80;;;;;;5032540;28;20074;-64
2022/05/02 05:59:10;;;;;;;4.07;3.67;;;14.40;88.60;;;;;;5032756;28;20522;-63
2022/05/02 06:02:17;;;;;;;3.90;3.50;;;14.50;88.20;;;;;;5032817;28;20482;-64
2022/05/02 06:04:44;;;;;;;4.22;3.45;;;14.50;87.40;;;;;;5022644;28;20034;-63
2022/05/02 06:07:11;;;;;;;5.50;3.83;;;14.50;86.90;;;;;;5032706;28;20406;-62
2022/05/02 06:09:42;;;;;;;5.25;3.75;;;14.60;86.70;;;;;;5032607;28;20371;-62
2022/05/02 06:12:12;;;;;;;4.53;3.42;;;14.60;86.30;;;;;;5032571;28;20026;-62
2022/05/02 06:20:13;;;;;;;3.92;3.10;;;14.80;85.40;;;;;;5032472;28;20545;-64
2022/05/02 06:22:45;;;;;;;9.80;3.08;;;14.90;85.10;;;;;;5042469;28;20045;-63
2022/05/02 06:25:13;;;;;;;5.88;3.20;;;15.00;84.80;;;;;;5052656;28;20126;-63
2022/05/02 06:27:41;;;;;;;4.15;2.72;;;15.00;84.00;;;;;;5052040;28;20032;-63
2022/05/02 06:30:08;;;;;;;3.88;2.20;;;15.10;83.30;;;;;;5052314;28;20037;-63
2022/05/02 06:32:38;;;;;;;2.78;2.00;;;15.10;82.10;;;;;;5052372;28;20044;-63
2022/05/02 06:35:05;;;;;;;2.17;1.65;;;15.20;81.70;;;;;;5052558;28;20037;-63
2022/05/02 06:37:58;;;;;;;4.35;1.60;;;15.20;79.70;;;;;;5052179;28;20073;-64
2022/05/02 06:40:31;;;;;;;;;;;15.30;78.70;;;;;;5038915;28;20033;-63
2022/05/02 06:43:29;;;;;;;4.35;1.70;;;15.30;78.20;;;;;;5051883;28;19905;-62
2022/05/02 06:46:10;;;;;;;31.20;2.40;;;15.40;78.30;;;;;;4997734;28;20044;-65
2022/05/02 06:48:47;;;;;;;5.43;1.77;;;15.40;76.10;;;;;;5053219;28;20094;-63
2022/05/02 06:51:20;;;;;;;1.85;1.73;;;15.50;76.40;;;;;;5056133;28;20029;-62
2022/05/02 06:53:56;;;;;;;2.03;1.60;;;15.50;76.40;;;;;;5055814;28;20033;-66
2022/05/02 06:56:42;;;;;;;3.40;1.88;;;15.60;75.90;;;;;;5055816;28;20040;-65
2022/05/02 06:59:25;;;;;;;2.03;1.63;;;15.60;76.10;;;;;;5061400;28;20055;-62
2022/05/02 07:02:12;;;;;;;4.28;2.00;;;15.60;76.80;;;;;;5073625;28;20036;-62
2022/05/02 07:04:54;;;;;;;2.53;1.88;;;15.60;77.30;;;;;;5074774;28;20043;-62
2022/05/02 07:07:44;;;;;;;2.38;1.70;;;15.70;76.20;;;;;;5074827;28;20086;-62
2022/05/02 07:10:14;;;;;;;3.25;2.00;;;15.70;76.20;;;;;;5074232;28;20499;-62
2022/05/02 07:13:08;;;;;;;7.10;2.00;;;15.70;76.20;;;;;;5073749;28;20401;-64
2022/05/02 07:16:01;;;;;;;4.13;1.98;;;15.80;77.20;;;;;;5073885;28;20043;-62
2022/05/02 07:19:01;;;;;;;3.10;2.00;;;15.80;75.80;;;;;;5074894;28;20442;-62
2022/05/02 07:21:56;;;;;;;3.72;2.20;;;15.90;74.80;;;;;;5029237;28;20040;-62
2022/05/02 07:24:47;;;;;;;5.60;1.90;;;16.00;75.00;;;;;;5075438;28;20091;-62
2022/05/02 07:27:21;;;;;;;4.53;2.35;;;16.00;74.40;;;;;;5075028;28;20051;-62
2022/05/02 07:29:49;;;;;;;2.92;1.83;;;16.10;74.20;;;;;;5075190;28;20029;-67
2022/05/02 07:32:17;;;;;;;2.30;2.10;;;16.20;75.20;;;;;;5075040;28;20060;-62
2022/05/02 07:34:46;;;;;;;5.05;2.20;;;16.30;74.90;;;;;;5075181;28;20082;-62
2022/05/02 07:37:15;;;;;;;4.30;2.38;;;16.40;75.40;;;;;;5074598;28;20390;-62
2022/05/02 07:39:43;;;;;;;3.80;2.00;;;16.40;74.30;;;;;;5075021;28;20032;-62
2022/05/02 07:42:10;;;;;;;4.35;2.10;;;16.50;73.20;;;;;;5075203;28;20055;-62
2022/05/02 07:44:38;;;;;;;3.75;2.35;;;16.60;72.40;;;;;;5074933;28;20036;-62
2022/05/02 07:47:06;;;;;;;4.57;2.90;;;16.70;71.00;;;;;;5074567;28;20032;-62
2022/05/02 07:49:33;;;;;;;4.95;2.60;;;16.70;70.60;;;;;;5074766;28;20068;-62
2022/05/02 07:52:02;;;;;;;3.88;2.70;;;16.80;71.10;;;;;;5074587;28;20028;-63
2022/05/02 07:54:37;;;;;;;2.30;2.10;;;16.80;70.20;;;;;;5074421;28;20047;-63
2022/05/02 07:57:05;;;;;;;3.97;2.30;;;16.90;69.30;;;;;;5074458;28;20048;-62
2022/05/02 07:59:35;;;;;;;3.92;2.40;;;16.90;68.20;;;;;;5074419;28;20037;-62
2022/05/02 08:02:01;;;;;;;4.25;2.60;;;17.00;68.30;;;;;;5074409;28;20059;-62
2022/05/02 08:04:27;;;;;;;4.78;2.58;;;17.00;68.30;;;;;;5074958;28;20052;-63
2022/05/02 08:07:01;;;;;;;3.78;2.78;;;17.10;68.90;;;;;;5073844;28;20034;-63
2022/05/02 08:09:57;;;;;;;5.93;2.90;;;17.10;68.40;;;;;;5073828;28;20041;-62
2022/05/02 08:12:32;;;;;;;3.00;2.67;;;17.10;66.90;;;;;;5073741;28;20029;-62
2022/05/02 08:15:18;;;;;;;7.35;3.20;;;17.20;67.20;;;;;;5074055;28;20484;-62
2022/05/02 08:18:18;;;;;;;4.18;3.38;;;17.30;67.60;;;;;;5074074;28;20124;-62
2022/05/02 08:21:16;;;;;;;5.80;3.10;;;17.30;68.00;;;;;;5074458;28;20384;-62
2022/05/02 08:27:19;;;;;;;7.25;3.00;;;17.40;69.00;;;;;;5074680;28;20171;-62
2022/05/02 08:30:03;;;;;;;3.10;2.55;;;17.50;68.50;;;;;;5073813;28;20056;-63
2022/05/02 08:32:59;;;;;;;5.18;2.97;;;17.60;66.90;;;;;;5073390;28;20044;-62
2022/05/02 08:35:37;;;;;;;6.60;2.50;;;17.60;67.20;;;;;;5074286;28;20028;-62
2022/05/02 08:38:17;;;;;;;6.80;3.30;;;17.70;66.70;;;;;;5073809;28;20055;-63
2022/05/02 08:41:31;;;;;;;4.85;2.80;;;17.70;66.80;;;;;;5074194;28;20434;-63
2022/05/02 08:44:16;;;;;;;3.53;2.22;;;17.70;66.20;;;;;;4973196;28;20105;-63
2022/05/02 08:47:19;;;;;;;3.70;2.63;;;17.80;65.20;;;;;;5063370;28;20036;-66
2022/05/02 08:50:16;;;;;;;3.28;2.47;;;17.80;65.30;;;;;;5073683;28;20028;-62
2022/05/02 08:53:15;;;;;;;3.95;2.38;;;17.90;66.90;;;;;;5023553;28;20071;-63
2022/05/02 08:55:52;;;;;;;3.65;2.28;;;18.00;66.70;;;;;;5073245;28;20147;-63
2022/05/02 08:58:26;;;;;;;4.13;2.53;;;18.00;64.20;;;;;;5073143;28;20055;-62
2022/05/02 09:01:26;;;;;;;3.30;2.03;;;18.10;64.50;;;;;;5073430;28;20040;-63
2022/05/02 09:04:30;;;;;;;5.18;2.33;;;18.10;63.70;;;;;;5073503;28;20072;-62
2022/05/02 09:07:14;;;;;;;2.80;2.00;;;18.10;63.30;;;;;;5073723;28;20469;-62
2022/05/02 09:10:05;;;;;;;3.55;2.58;;;18.10;61.90;;;;;;5073046;28;20040;-62
2022/05/02 09:12:52;;;;;;;3.38;2.05;;;18.00;61.50;;;;;;5072852;28;20029;-68
2022/05/02 09:15:57;;;;;;;4.30;2.38;;;18.00;62.70;;;;;;5070503;28;20040;-63
2022/05/02 09:18:56;;;;;;;3.50;2.53;;;18.00;63.40;;;;;;5070425;28;20076;-63
2022/05/02 09:21:40;;;;;;;8.63;2.33;;;18.00;63.80;;;;;;5071529;28;20032;-63
2022/05/02 09:24:24;;;;;;;2.75;1.80;;;18.00;62.80;;;;;;5071277;28;20052;-63
2022/05/02 09:26:56;;;;;;;4.03;2.00;;;18.00;62.70;;;;;;5072347;28;20040;-62
2022/05/02 09:29:24;;;;;;;2.60;1.67;;;18.10;62.40;;;;;;5072133;28;20519;-62
2022/05/02 09:32:17;;;;;;;4.22;1.90;;;18.10;62.60;;;;;;5072830;28;20064;-62
2022/05/02 09:34:56;;;;;;;3.40;2.10;;;18.10;62.20;;;;;;5072881;28;20107;-63
2022/05/02 09:37:33;;;;;;;5.55;2.83;;;18.10;61.30;;;;;;5071303;28;20051;-63
2022/05/02 09:40:10;;;;;;;2.53;2.00;;;18.10;61.00;;;;;;5067492;28;20031;-63
2022/05/02 09:43:05;;;;;;;2.72;1.98;;;18.10;61.50;;;;;;5071756;28;20063;-62
2022/05/02 09:51:51;;;;;;;3.05;2.00;;;18.20;62.10;;;;;;5071739;28;20035;-62
2022/05/02 09:57:22;;;;;;;3.45;1.90;;;18.20;60.50;;;;;;5040280;28;20056;-62
2022/05/02 10:01:06;;;;;;;3.28;1.90;;;18.20;60.90;;;;;;5071674;28;20037;-62
2022/05/02 10:02:46;;;;;;;3.15;1.92;;;18.20;60.40;;;;;;5071353;28;20064;-62
2022/05/02 10:05:21;;;;;;;6.53;2.00;;;18.10;61.20;;;;;;5071719;28;20040;-63
2022/05/02 10:07:56;;;;;;;4.63;2.30;;;18.10;60.90;;;;;;5071705;28;20477;-63
2022/05/02 10:10:48;;;;;;;3.78;2.08;;;18.10;61.70;;;;;;5072012;28;20037;-63
2022/05/02 10:13:35;;;;;;;7.30;2.00;;;18.10;60.80;;;;;;5072059;28;20366;-63
2022/05/02 10:16:42;;;;;;;5.63;2.53;;;18.20;61.00;;;;;;5072137;28;20028;-62
2022/05/02 10:19:37;;;;;;;4.70;2.15;;;18.20;60.10;;;;;;4990951;28;20042;-62
2022/05/02 10:22:23;;;;;;;5.13;2.38;;;18.30;60.30;;;;;;5071507;28;20110;-62
2022/05/02 10:24:54;;;;;;;2.63;1.92;;;18.40;59.90;;;;;;5073677;28;20041;-63
2022/05/02 10:27:43;;;;;;;2.88;2.10;;;18.50;60.00;;;;;;5067929;28;20037;-62
2022/05/02 10:30:12;;;;;;;3.20;2.00;;;18.50;60.90;;;;;;5076034;28;20033;-62
2022/05/02 10:32:56;;;;;;;3.17;1.95;;;18.60;60.10;;;;;;5076032;28;20036;-62
2022/05/02 10:35:24;;;;;;;6.28;2.53;;;18.70;58.60;;;;;;5075309;28;20128;-65
2022/05/02 10:38:01;;;;;;;4.95;2.40;;;18.70;58.00;;;;;;5075607;28;20033;-62
2022/05/02 10:40:38;;;;;;;3.70;2.33;;;18.80;59.10;;;;;;5075739;28;20033;-62
2022/05/02 10:43:09;;;;;;;5.32;2.35;;;18.80;57.20;;;;;;5074055;28;20112;-63
2022/05/02 10:45:37;;;;;;;3.42;2.20;;;18.90;57.30;;;;;;5052902;28;20033;-63
2022/05/02 10:48:22;;;;;;;5.78;2.05;;;18.90;57.20;;;;;;5052880;28;20025;-62
2022/05/02 10:51:05;;;;;;;2.60;1.80;;;18.90;56.60;;;;;;5054538;28;20025;-62
2022/05/02 10:53:49;;;;;;;4.65;2.22;;;19.00;56.30;;;;;;5055849;28;20447;-62
2022/05/02 10:56:40;;;;;;;6.35;1.95;;;19.00;55.40;;;;;;5055109;28;20040;-62
2022/05/02 10:59:08;;;;;;;3.75;1.80;;;19.00;56.70;;;;;;5055555;28;20051;-62
2022/05/02 11:02:22;;;;;;;2.60;1.88;;;19.00;57.10;;;;;;5055369;28;20033;-62
2022/05/02 11:05:04;;;;;;;3.25;2.10;;;19.00;57.40;;;;;;5055570;28;20048;-62
2022/05/02 11:07:39;;;;;;;4.77;1.93;;;18.90;59.00;;;;;;5055402;28;20108;-62
2022/05/02 11:10:11;;;;;;;4.82;1.67;;;18.90;56.40;;;;;;5055333;28;20536;-62
2022/05/02 11:12:56;;;;;;;1.95;1.55;;;18.90;57.50;;;;;;5055197;28;20120;-62
2022/05/02 11:15:31;;;;;;;5.82;1.70;;;18.90;57.10;;;;;;5055034;28;20068;-62
2022/05/02 11:21:32;;;;;;;6.47;2.10;;;18.90;56.30;;;;;;5055553;28;20496;-62
2022/05/02 11:23:57;;;;;;;;;;;18.80;56.60;;;;;;5055410;28;20057;-66
2022/05/02 11:26:37;;;;;;;4.75;1.80;;;18.80;57.80;;;;;;5055107;28;19953;-65
2022/05/02 11:29:22;;;;;;;4.28;1.70;;;18.90;57.80;;;;;;5054804;28;20043;-64
2022/05/02 11:32:01;;;;;;;2.92;1.73;;;18.90;57.70;;;;;;5055089;28;20536;-62
2022/05/02 11:34:31;;;;;;;4.10;1.60;;;18.90;57.80;;;;;;5055081;28;20140;-62
2022/05/02 11:36:58;;;;;;;2.45;1.70;;;19.00;57.40;;;;;;5055358;28;20112;-62
2022/05/02 11:39:50;;;;;;;5.13;1.90;;;19.00;55.50;;;;;;5055177;28;20083;-63
2022/05/02 11:42:21;;;;;;;5.68;1.90;;;19.10;57.40;;;;;;5054461;28;20044;-63
2022/05/02 11:45:03;;;;;;;2.85;1.83;;;19.20;58.00;;;;;;5054585;28;20037;-62
2022/05/02 11:47:34;;;;;;;3.72;1.60;;;19.20;58.60;;;;;;5054633;28;20505;-64
2022/05/02 11:50:10;;;;;;;5.70;1.77;;;19.30;57.90;;;;;;5036413;28;20389;-63
2022/05/02 11:52:38;;;;;;;7.65;1.92;;;19.40;56.00;;;;;;5052898;28;20044;-63
2022/05/02 11:55:06;;;;;;;8.95;2.17;;;19.50;53.90;;;;;;5053300;28;20028;-63
2022/05/02 11:57:36;;;;;;;2.42;1.83;;;19.50;53.90;;;;;;5053818;28;20045;-63
2022/05/02 12:00:11;;;;;;;5.38;1.77;;;19.50;55.20;;;;;;5054155;28;20040;-62
2022/05/02 12:02:58;;;;;;;3.30;1.73;;;19.50;55.50;;;;;;5053769;28;20036;-62
2022/05/02 12:05:32;;;;;;;18.90;2.40;;;19.60;53.80;;;;;;5053561;28;20029;-61
2022/05/02 12:07:59;;;;;;;2.47;1.90;;;19.60;54.00;;;;;;5053067;28;20164;-63
2022/05/02 12:10:38;;;;;;;1.83;1.67;;;19.70;54.40;;;;;;5052400;28;20033;-62
2022/05/02 12:13:12;;;;;;;3.65;1.63;;;19.80;54.50;;;;;;5053061;28;20048;-64
2022/05/02 12:16:00;;;;;;;3.15;1.65;;;19.70;53.70;;;;;;5051264;28;20625;-63
2022/05/02 12:18:52;;;;;;;4.20;1.60;;;19.80;53.10;;;;;;5049699;28;20067;-63
2022/05/02 12:21:48;;;;;;;5.00;1.60;;;19.80;52.70;;;;;;5051212;28;20083;-62
2022/05/02 12:24:27;;;;;;;5.05;1.45;;;19.70;54.10;;;;;;5054004;28;20048;-63
2022/05/02 12:26:54;;;;;;;3.97;1.58;;;19.80;53.80;;;;;;5054032;28;20039;-62
2022/05/02 12:29:20;;;;;;;3.15;1.70;;;19.80;53.40;;;;;;5053612;28;20033;-62
2022/05/02 12:32:07;;;;;;;4.07;1.75;;;19.80;53.80;;;;;;5053589;28;20032;-62
2022/05/02 12:34:39;;;;;;;3.97;1.65;;;19.80;54.70;;;;;;5053807;28;20509;-63
2022/05/02 12:37:09;;;;;;;4.55;1.80;;;19.80;53.60;;;;;;5053839;28;20045;-62
2022/05/02 12:39:45;;;;;;;2.35;1.60;;;19.80;53.60;;;;;;5053475;28;20035;-62
2022/05/02 12:42:17;;;;;;;3.83;1.85;;;19.80;53.30;;;;;;5046785;28;20033;-63
2022/05/02 12:44:49;;;;;;;;;;;19.80;54.20;;;;;;5052327;28;20477;-65
2022/05/02 12:47:21;;;;;;;4.97;1.63;;;19.80;53.40;;;;;;5053172;28;19950;-63
2022/05/02 12:50:01;;;;;;;2.25;1.70;;;19.80;53.20;;;;;;5050547;28;20433;-63
2022/05/02 12:52:28;;;;;;;4.50;1.50;;;19.70;53.90;;;;;;5050895;28;20469;-62
2022/05/02 12:54:55;;;;;;;3.75;1.70;;;19.70;53.80;;;;;;5047581;28;20095;-64
2022/05/02 13:00:31;;;;;;;3.67;1.92;;;19.80;54.50;;;;;;5049406;28;20118;-63
2022/05/02 13:03:03;;;;;;;11.88;4.20;;;19.80;54.30;;;;;;5053377;28;20045;-63
2022/05/02 13:05:32;;;;;;;11.57;3.60;;;19.90;55.20;;;;;;5053457;28;20081;-63
2022/05/02 13:08:10;;;;;;;7.45;3.45;;;20.00;55.60;;;;;;5053426;28;20029;-63
2022/05/02 13:10:36;;;;;;;11.15;4.20;;;20.10;55.20;;;;;;5053314;28;20474;-63
2022/05/02 13:13:07;;;;;;;14.10;5.95;;;20.10;55.30;;;;;;5053314;28;20041;-65
2022/05/02 13:15:47;;;;;;;3.25;1.95;;;20.20;56.30;;;;;;5053516;28;20032;-63
2022/05/02 13:18:18;;;;;;;8.05;2.83;;;20.30;53.60;;;;;;5053126;28;20049;-62
2022/05/02 13:21:00;;;;;;;4.72;1.90;;;20.30;54.00;;;;;;5053038;28;20440;-62
2022/05/02 13:23:42;;;;;;;3.90;1.95;;;20.30;54.80;;;;;;5052936;28;20069;-62
2022/05/02 13:26:33;;;;;;;2.85;1.75;;;20.30;54.80;;;;;;5052955;28;20564;-62
2022/05/02 13:29:05;;;;;;;4.47;1.60;;;20.30;54.60;;;;;;5053077;28;20037;-62
2022/05/02 13:31:50;;;;;;;2.95;1.80;;;20.30;54.70;;;;;;5052948;28;20033;-62
2022/05/02 13:34:31;;;;;;;7.00;1.58;;;20.30;55.00;;;;;;5052904;28;20037;-62
2022/05/02 13:37:22;;;;;;;6.07;1.85;;;20.20;53.60;;;;;;5053045;28;20072;-62
2022/05/02 13:40:01;;;;;;;6.53;1.83;;;20.20;52.60;;;;;;5052986;28;20040;-62
2022/05/02 13:42:39;;;;;;;3.50;1.60;;;20.20;52.70;;;;;;5052618;28;20520;-62
2022/05/02 13:45:16;;;;;;;7.78;1.83;;;20.20;52.20;;;;;;5052632;28;20095;-62
2022/05/02 13:47:56;;;;;;;5.22;2.10;;;20.20;52.70;;;;;;5052534;28;20090;-65
2022/05/02 13:50:26;;;;;;;5.90;1.77;;;20.20;53.50;;;;;;5052677;28;20472;-62
2022/05/02 13:53:11;;;;;;;6.47;1.88;;;20.20;52.30;;;;;;5052455;28;20072;-62
2022/05/02 13:55:39;;;;;;;3.65;1.60;;;20.20;52.00;;;;;;5052380;28;20060;-62